Blue Lake, Indiana
Current Conditions -  °F | °C
As of 11:55 AM on Wednesday 22 Oct 2014 (Local Time) from KGWB Reporting Station
Overcast Overcast  
Wind Chill: 42°   Ceiling: 2100
Heat Index: 46°   Visibility: 10mi
Dew Point: 37°   Wind: 9mph
Humidity: 71%   Direction: 40°NE
Pressure: 30.36"   Gusts: NA
Location:  41.225°N, 85.325°W
Report Text: KGWB 221555Z AUTO 04008KT 10SM OVC021 08/03 A3036 RMK AO2
Loading
Personal Weather Stations






























Interactive Weather Map
Tropical Storm Tracking
New forecast layout! Learn more

10-Day Weather Forecast

Advertisements
Track Severe Weather on mobile